Hovedside
METAR-TAF:

METAR-TAF

Lufthavner :

Brighton, England

breddegrad: 50-50N, lengdegrad: 000-17W, høyde over havet: 2 m

Gjeldene værobservasjon

Denne rapporten ble laget for 1 time og 41 minutter siden, klokken 13:20 UTC
Vind 9 kt fra Øst
Temperatur 7°C
Luftfuktighet 87%
Trykk 1031 hPa
Sikt 10 km eller mer
Brutte skyer i en høyde av 1600 ft

METAR: EGKA 231320Z 08009KT 9999 BKN016 07/05 Q1031

Tid: 15:01 (15:01 UTC)

Varsel

Denne rapporten ble laget for 1 time og 4 minutter siden, klokken 13:57 UTC
Varsel gyldig fra 23. klokken 15 UTC til 23. klokken 20 UTC
Vind 7 kt fra Øst-nordøst
Sikt 10 km eller mer
Brutte skyer i en høyde av 1600 ft
Sannsynlighet 30%
fra 23. klokken 15 UTC til 23. klokken 20 UTC
Sikt: 8000 m
Brutte skyer i en høyde av 1200 ft

TAF: EGKA 231357Z 2315/2320 06007KT 9999 BKN016 PROB30 2315/2320 8000 BKN012

Værobservasjoner og værvarsel for over 4000 flyplasser (METAR- og TAF-rapporter).

Tilgjengelige stasjoner er representert av de røde og gule prikkene på kartet.

Hold musepekeren over prikken for å se navnet på stasjonen.

Klikk så for å se værobservasjoner og -varsler.

For å forandre kartet kan du klikke på den grønne knappen med svart kryss for å zoome inn, på den grønne knappen med strek for å zoome ut, eller på de grønne pilene for å se tilstøtende kart.


METAR-TAF: